sensor_id;sensor_type;location;lat;lon;timestamp;temperature;humidity
20803;DHT22;10562;-33.856;151.182;2024-03-08T00:00:48;27.00;99.90
20803;DHT22;10562;-33.856;151.182;2024-03-08T00:03:21;27.20;99.90
20803;DHT22;10562;-33.856;151.182;2024-03-08T00:05:52;27.50;99.90
20803;DHT22;10562;-33.856;151.182;2024-03-08T00:08:23;28.00;99.90
20803;DHT22;10562;-33.856;151.182;2024-03-08T00:10:54;28.50;99.90
20803;DHT22;10562;-33.856;151.182;2024-03-08T00:13:25;28.80;99.90
20803;DHT22;10562;-33.856;151.182;2024-03-08T00:15:56;28.80;99.90
20803;DHT22;10562;-33.856;151.182;2024-03-08T00:18:29;28.90;99.90
20803;DHT22;10562;-33.856;151.182;2024-03-08T00:20:59;29.30;99.90
20803;DHT22;10562;-33.856;151.182;2024-03-08T00:23:30;29.60;99.90
20803;DHT22;10562;-33.856;151.182;2024-03-08T00:26:01;29.70;99.90
20803;DHT22;10562;-33.856;151.182;2024-03-08T00:28:32;30.00;99.90
20803;DHT22;10562;-33.856;151.182;2024-03-08T00:31:03;30.30;99.90
20803;DHT22;10562;-33.856;151.182;2024-03-08T00:33:36;30.40;99.90
20803;DHT22;10562;-33.856;151.182;2024-03-08T00:36:07;30.50;99.90
20803;DHT22;10562;-33.856;151.182;2024-03-08T00:38:38;30.70;99.90
20803;DHT22;10562;-33.856;151.182;2024-03-08T00:41:09;30.70;99.90
20803;DHT22;10562;-33.856;151.182;2024-03-08T00:43:40;30.50;99.90
20803;DHT22;10562;-33.856;151.182;2024-03-08T00:46:11;30.30;99.90
20803;DHT22;10562;-33.856;151.182;2024-03-08T00:48:45;30.10;99.90
20803;DHT22;10562;-33.856;151.182;2024-03-08T00:51:16;30.10;99.90
20803;DHT22;10562;-33.856;151.182;2024-03-08T00:53:46;30.00;99.90
20803;DHT22;10562;-33.856;151.182;2024-03-08T00:56:19;30.00;99.90
20803;DHT22;10562;-33.856;151.182;2024-03-08T00:58:50;30.20;99.90
20803;DHT22;10562;-33.856;151.182;2024-03-08T01:01:21;30.10;99.90
20803;DHT22;10562;-33.856;151.182;2024-03-08T01:03:54;30.40;99.90
20803;DHT22;10562;-33.856;151.182;2024-03-08T01:06:25;30.80;99.90
20803;DHT22;10562;-33.856;151.182;2024-03-08T01:08:55;31.20;99.90
20803;DHT22;10562;-33.856;151.182;2024-03-08T01:11:26;31.20;99.90
20803;DHT22;10562;-33.856;151.182;2024-03-08T01:13:57;30.90;99.90
20803;DHT22;10562;-33.856;151.182;2024-03-08T01:16:28;31.00;99.90
20803;DHT22;10562;-33.856;151.182;2024-03-08T01:19:03;31.20;99.90
20803;DHT22;10562;-33.856;151.182;2024-03-08T01:21:33;31.30;99.90
20803;DHT22;10562;-33.856;151.182;2024-03-08T01:24:04;31.40;99.90
20803;DHT22;10562;-33.856;151.182;2024-03-08T01:26:35;31.50;99.90
20803;DHT22;10562;-33.856;151.182;2024-03-08T01:29:06;31.60;99.90
20803;DHT22;10562;-33.856;151.182;2024-03-08T01:31:37;31.80;99.90
20803;DHT22;10562;-33.856;151.182;2024-03-08T01:34:09;31.80;99.90
20803;DHT22;10562;-33.856;151.182;2024-03-08T01:36:40;32.00;99.90
20803;DHT22;10562;-33.856;151.182;2024-03-08T01:39:11;32.10;99.90
20803;DHT22;10562;-33.856;151.182;2024-03-08T01:41:42;32.40;99.90
20803;DHT22;10562;-33.856;151.182;2024-03-08T01:44:13;32.20;99.90
20803;DHT22;10562;-33.856;151.182;2024-03-08T01:46:45;32.20;99.90
20803;DHT22;10562;-33.856;151.182;2024-03-08T01:49:19;32.30;99.90
20803;DHT22;10562;-33.856;151.182;2024-03-08T01:51:52;32.10;99.90
20803;DHT22;10562;-33.856;151.182;2024-03-08T01:54:24;32.10;99.90
20803;DHT22;10562;-33.856;151.182;2024-03-08T01:56:58;31.90;99.90
20803;DHT22;10562;-33.856;151.182;2024-03-08T01:59:29;32.20;99.90
20803;DHT22;10562;-33.856;151.182;2024-03-08T02:02:02;32.20;99.90
20803;DHT22;10562;-33.856;151.182;2024-03-08T02:04:34;32.20;99.90
20803;DHT22;10562;-33.856;151.182;2024-03-08T02:07:06;32.40;99.90
20803;DHT22;10562;-33.856;151.182;2024-03-08T02:09:37;32.20;99.90
20803;DHT22;10562;-33.856;151.182;2024-03-08T02:12:09;32.00;99.90
20803;DHT22;10562;-33.856;151.182;2024-03-08T02:14:40;32.00;99.90
20803;DHT22;10562;-33.856;151.182;2024-03-08T02:17:11;31.90;99.90
20803;DHT22;10562;-33.856;151.182;2024-03-08T02:19:44;31.90;99.90
20803;DHT22;10562;-33.856;151.182;2024-03-08T02:22:18;32.00;99.90
20803;DHT22;10562;-33.856;151.182;2024-03-08T02:24:50;32.10;99.90
20803;DHT22;10562;-33.856;151.182;2024-03-08T02:27:25;32.00;99.90
20803;DHT22;10562;-33.856;151.182;2024-03-08T02:29:57;32.00;99.90
20803;DHT22;10562;-33.856;151.182;2024-03-08T02:32:28;31.70;99.90
20803;DHT22;10562;-33.856;151.182;2024-03-08T02:35:00;31.80;99.90
20803;DHT22;10562;-33.856;151.182;2024-03-08T02:37:33;31.20;99.90
20803;DHT22;10562;-33.856;151.182;2024-03-08T02:40:04;31.30;99.90
20803;DHT22;10562;-33.856;151.182;2024-03-08T02:42:35;31.20;99.90
20803;DHT22;10562;-33.856;151.182;2024-03-08T02:45:06;31.40;99.90
20803;DHT22;10562;-33.856;151.182;2024-03-08T02:47:37;31.50;99.90
20803;DHT22;10562;-33.856;151.182;2024-03-08T02:50:09;31.60;99.90
20803;DHT22;10562;-33.856;151.182;2024-03-08T02:52:45;31.80;99.90
20803;DHT22;10562;-33.856;151.182;2024-03-08T02:55:16;32.00;99.90
20803;DHT22;10562;-33.856;151.182;2024-03-08T02:57:47;32.00;99.90
20803;DHT22;10562;-33.856;151.182;2024-03-08T03:00:18;32.20;99.90
20803;DHT22;10562;-33.856;151.182;2024-03-08T03:02:50;32.00;99.90
20803;DHT22;10562;-33.856;151.182;2024-03-08T03:05:21;31.90;99.90
20803;DHT22;10562;-33.856;151.182;2024-03-08T03:07:54;31.80;99.90
20803;DHT22;10562;-33.856;151.182;2024-03-08T03:10:25;31.70;99.90
20803;DHT22;10562;-33.856;151.182;2024-03-08T03:12:56;31.60;99.90
20803;DHT22;10562;-33.856;151.182;2024-03-08T03:15:27;31.60;99.90
20803;DHT22;10562;-33.856;151.182;2024-03-08T03:17:58;31.50;99.90
20803;DHT22;10562;-33.856;151.182;2024-03-08T03:20:28;31.60;99.90
20803;DHT22;10562;-33.856;151.182;2024-03-08T03:23:09;31.50;99.90
20803;DHT22;10562;-33.856;151.182;2024-03-08T03:25:42;31.60;99.90
20803;DHT22;10562;-33.856;151.182;2024-03-08T03:28:13;31.60;99.90
20803;DHT22;10562;-33.856;151.182;2024-03-08T03:30:46;31.50;99.90
20803;DHT22;10562;-33.856;151.182;2024-03-08T03:33:17;31.20;99.90
20803;DHT22;10562;-33.856;151.182;2024-03-08T03:35:48;31.00;99.90
20803;DHT22;10562;-33.856;151.182;2024-03-08T03:38:21;31.10;99.90
20803;DHT22;10562;-33.856;151.182;2024-03-08T03:40:54;31.30;99.90
20803;DHT22;10562;-33.856;151.182;2024-03-08T03:43:25;31.40;99.90
20803;DHT22;10562;-33.856;151.182;2024-03-08T03:45:56;31.50;99.90
20803;DHT22;10562;-33.856;151.182;2024-03-08T03:48:26;31.60;99.90
20803;DHT22;10562;-33.856;151.182;2024-03-08T03:50:57;31.60;99.90
20803;DHT22;10562;-33.856;151.182;2024-03-08T03:53:30;31.70;99.90
20803;DHT22;10562;-33.856;151.182;2024-03-08T03:56:00;31.40;99.90
20803;DHT22;10562;-33.856;151.182;2024-03-08T03:58:34;31.50;99.90
20803;DHT22;10562;-33.856;151.182;2024-03-08T04:01:06;31.50;99.90
20803;DHT22;10562;-33.856;151.182;2024-03-08T04:03:37;31.60;99.90
20803;DHT22;10562;-33.856;151.182;2024-03-08T04:06:12;31.40;99.90
20803;DHT22;10562;-33.856;151.182;2024-03-08T04:08:44;31.40;99.90
20803;DHT22;10562;-33.856;151.182;2024-03-08T04:11:15;31.20;99.90
20803;DHT22;10562;-33.856;151.182;2024-03-08T04:13:46;31.10;99.90
20803;DHT22;10562;-33.856;151.182;2024-03-08T04:16:17;31.20;99.90
20803;DHT22;10562;-33.856;151.182;2024-03-08T04:18:48;31.40;99.90
20803;DHT22;10562;-33.856;151.182;2024-03-08T04:21:18;31.40;99.90
20803;DHT22;10562;-33.856;151.182;2024-03-08T04:23:51;31.40;99.90
20803;DHT22;10562;-33.856;151.182;2024-03-08T04:26:22;31.60;99.90
20803;DHT22;10562;-33.856;151.182;2024-03-08T04:28:53;31.50;99.90
20803;DHT22;10562;-33.856;151.182;2024-03-08T04:31:24;31.50;99.90
20803;DHT22;10562;-33.856;151.182;2024-03-08T04:33:57;31.60;99.90
20803;DHT22;10562;-33.856;151.182;2024-03-08T04:36:28;31.40;99.90
20803;DHT22;10562;-33.856;151.182;2024-03-08T04:39:01;31.10;99.90
20803;DHT22;10562;-33.856;151.182;2024-03-08T04:41:32;31.00;99.90
20803;DHT22;10562;-33.856;151.182;2024-03-08T04:44:05;31.00;99.90
20803;DHT22;10562;-33.856;151.182;2024-03-08T04:46:37;31.00;99.90
20803;DHT22;10562;-33.856;151.182;2024-03-08T04:49:08;31.10;99.90
20803;DHT22;10562;-33.856;151.182;2024-03-08T04:51:39;31.10;99.90
20803;DHT22;10562;-33.856;151.182;2024-03-08T04:54:12;31.10;99.90
20803;DHT22;10562;-33.856;151.182;2024-03-08T04:56:43;31.10;99.90
20803;DHT22;10562;-33.856;151.182;2024-03-08T04:59:13;31.10;99.90
20803;DHT22;10562;-33.856;151.182;2024-03-08T05:01:44;31.10;99.90
20803;DHT22;10562;-33.856;151.182;2024-03-08T05:04:15;31.20;99.90
20803;DHT22;10562;-33.856;151.182;2024-03-08T05:06:45;31.30;99.90
20803;DHT22;10562;-33.856;151.182;2024-03-08T05:09:18;31.40;99.90
20803;DHT22;10562;-33.856;151.182;2024-03-08T05:11:49;31.40;99.90
20803;DHT22;10562;-33.856;151.182;2024-03-08T05:14:20;31.40;99.90
20803;DHT22;10562;-33.856;151.182;2024-03-08T05:16:53;31.50;99.90
20803;DHT22;10562;-33.856;151.182;2024-03-08T05:19:23;31.60;99.90
20803;DHT22;10562;-33.856;151.182;2024-03-08T05:21:54;31.60;99.90
20803;DHT22;10562;-33.856;151.182;2024-03-08T05:24:27;31.80;99.90
20803;DHT22;10562;-33.856;151.182;2024-03-08T05:26:58;32.00;99.90
20803;DHT22;10562;-33.856;151.182;2024-03-08T05:29:30;32.00;99.90
20803;DHT22;10562;-33.856;151.182;2024-03-08T05:32:01;31.90;99.90
20803;DHT22;10562;-33.856;151.182;2024-03-08T05:34:31;32.00;99.90
20803;DHT22;10562;-33.856;151.182;2024-03-08T05:37:04;31.70;99.90
20803;DHT22;10562;-33.856;151.182;2024-03-08T05:39:36;31.70;99.90
20803;DHT22;10562;-33.856;151.182;2024-03-08T05:42:08;31.90;99.90
20803;DHT22;10562;-33.856;151.182;2024-03-08T05:44:39;32.10;99.90
20803;DHT22;10562;-33.856;151.182;2024-03-08T05:47:10;32.00;99.90
20803;DHT22;10562;-33.856;151.182;2024-03-08T05:49:41;32.00;99.90
20803;DHT22;10562;-33.856;151.182;2024-03-08T05:52:12;31.80;99.90
20803;DHT22;10562;-33.856;151.182;2024-03-08T05:54:46;31.70;99.90
20803;DHT22;10562;-33.856;151.182;2024-03-08T05:57:17;31.60;99.90
20803;DHT22;10562;-33.856;151.182;2024-03-08T05:59:50;31.70;99.90
20803;DHT22;10562;-33.856;151.182;2024-03-08T06:02:21;32.00;99.90
20803;DHT22;10562;-33.856;151.182;2024-03-08T06:04:52;32.00;99.90
20803;DHT22;10562;-33.856;151.182;2024-03-08T06:07:23;32.00;99.90
20803;DHT22;10562;-33.856;151.182;2024-03-08T06:09:56;31.90;99.90
20803;DHT22;10562;-33.856;151.182;2024-03-08T06:12:27;31.80;99.90
20803;DHT22;10562;-33.856;151.182;2024-03-08T06:15:01;31.60;99.90
20803;DHT22;10562;-33.856;151.182;2024-03-08T06:17:32;31.60;99.90
20803;DHT22;10562;-33.856;151.182;2024-03-08T06:20:03;31.60;99.90
20803;DHT22;10562;-33.856;151.182;2024-03-08T06:22:38;31.50;99.90
20803;DHT22;10562;-33.856;151.182;2024-03-08T06:25:12;31.60;99.90
20803;DHT22;10562;-33.856;151.182;2024-03-08T06:27:43;31.60;99.90
20803;DHT22;10562;-33.856;151.182;2024-03-08T06:30:17;31.50;99.90
20803;DHT22;10562;-33.856;151.182;2024-03-08T06:32:49;31.40;99.90
20803;DHT22;10562;-33.856;151.182;2024-03-08T06:35:19;31.30;99.90
20803;DHT22;10562;-33.856;151.182;2024-03-08T06:37:51;31.30;99.90
20803;DHT22;10562;-33.856;151.182;2024-03-08T06:40:23;31.20;99.90
20803;DHT22;10562;-33.856;151.182;2024-03-08T06:42:54;31.00;99.90
20803;DHT22;10562;-33.856;151.182;2024-03-08T06:45:25;31.10;99.90
20803;DHT22;10562;-33.856;151.182;2024-03-08T06:47:56;31.20;99.90
20803;DHT22;10562;-33.856;151.182;2024-03-08T06:50:27;31.30;99.90
20803;DHT22;10562;-33.856;151.182;2024-03-08T06:52:59;31.50;99.90
20803;DHT22;10562;-33.856;151.182;2024-03-08T06:55:32;31.60;99.90
20803;DHT22;10562;-33.856;151.182;2024-03-08T06:58:03;31.60;99.90
20803;DHT22;10562;-33.856;151.182;2024-03-08T07:00:35;31.50;99.90
20803;DHT22;10562;-33.856;151.182;2024-03-08T07:03:08;31.20;99.90
20803;DHT22;10562;-33.856;151.182;2024-03-08T07:05:40;31.10;99.90
20803;DHT22;10562;-33.856;151.182;2024-03-08T07:08:10;30.90;99.90
20803;DHT22;10562;-33.856;151.182;2024-03-08T07:10:43;30.90;99.90
20803;DHT22;10562;-33.856;151.182;2024-03-08T07:13:15;31.00;99.90
20803;DHT22;10562;-33.856;151.182;2024-03-08T07:15:46;31.10;99.90
20803;DHT22;10562;-33.856;151.182;2024-03-08T07:18:17;30.70;99.90
20803;DHT22;10562;-33.856;151.182;2024-03-08T07:20:49;30.50;99.90
20803;DHT22;10562;-33.856;151.182;2024-03-08T07:23:21;30.30;99.90
20803;DHT22;10562;-33.856;151.182;2024-03-08T07:26:06;29.90;99.90
20803;DHT22;10562;-33.856;151.182;2024-03-08T07:28:37;29.10;99.90
20803;DHT22;10562;-33.856;151.182;2024-03-08T07:31:08;28.30;99.90
20803;DHT22;10562;-33.856;151.182;2024-03-08T07:33:49;27.80;99.90
20803;DHT22;10562;-33.856;151.182;2024-03-08T07:36:21;27.40;99.90
20803;DHT22;10562;-33.856;151.182;2024-03-08T07:38:52;27.20;99.90
20803;DHT22;10562;-33.856;151.182;2024-03-08T07:41:24;26.90;99.90
20803;DHT22;10562;-33.856;151.182;2024-03-08T07:43:55;26.70;99.90
20803;DHT22;10562;-33.856;151.182;2024-03-08T07:46:26;26.50;99.90
20803;DHT22;10562;-33.856;151.182;2024-03-08T07:48:57;26.40;99.90
20803;DHT22;10562;-33.856;151.182;2024-03-08T07:51:27;26.30;99.90
20803;DHT22;10562;-33.856;151.182;2024-03-08T07:53:58;26.30;99.90
20803;DHT22;10562;-33.856;151.182;2024-03-08T07:56:31;26.20;99.90
20803;DHT22;10562;-33.856;151.182;2024-03-08T07:59:02;26.10;99.90
20803;DHT22;10562;-33.856;151.182;2024-03-08T08:01:34;26.00;99.90
20803;DHT22;10562;-33.856;151.182;2024-03-08T08:04:04;25.90;99.90
20803;DHT22;10562;-33.856;151.182;2024-03-08T08:06:40;25.80;99.90
20803;DHT22;10562;-33.856;151.182;2024-03-08T08:09:10;25.70;99.90
20803;DHT22;10562;-33.856;151.182;2024-03-08T08:11:44;25.70;99.90
20803;DHT22;10562;-33.856;151.182;2024-03-08T08:14:15;25.60;99.90
20803;DHT22;10562;-33.856;151.182;2024-03-08T08:16:46;25.50;99.90
20803;DHT22;10562;-33.856;151.182;2024-03-08T08:19:18;25.50;99.90
20803;DHT22;10562;-33.856;151.182;2024-03-08T08:21:48;25.40;99.90
20803;DHT22;10562;-33.856;151.182;2024-03-08T08:24:19;25.40;99.90
20803;DHT22;10562;-33.856;151.182;2024-03-08T08:26:52;25.30;99.90
20803;DHT22;10562;-33.856;151.182;2024-03-08T08:29:23;25.30;99.90
20803;DHT22;10562;-33.856;151.182;2024-03-08T08:31:54;25.30;99.90
20803;DHT22;10562;-33.856;151.182;2024-03-08T08:34:26;25.20;99.90
20803;DHT22;10562;-33.856;151.182;2024-03-08T08:36:57;25.20;99.90
20803;DHT22;10562;-33.856;151.182;2024-03-08T08:39:28;25.10;99.90
20803;DHT22;10562;-33.856;151.182;2024-03-08T08:42:02;25.00;99.90
20803;DHT22;10562;-33.856;151.182;2024-03-08T08:44:32;24.90;99.90
20803;DHT22;10562;-33.856;151.182;2024-03-08T08:47:03;24.90;99.90
20803;DHT22;10562;-33.856;151.182;2024-03-08T08:49:34;24.90;99.90
20803;DHT22;10562;-33.856;151.182;2024-03-08T08:52:05;24.80;99.90
20803;DHT22;10562;-33.856;151.182;2024-03-08T08:54:36;24.70;99.90
20803;DHT22;10562;-33.856;151.182;2024-03-08T08:57:09;24.70;99.90
20803;DHT22;10562;-33.856;151.182;2024-03-08T08:59:40;24.60;99.90
20803;DHT22;10562;-33.856;151.182;2024-03-08T09:02:10;24.60;99.90
20803;DHT22;10562;-33.856;151.182;2024-03-08T09:04:42;24.60;99.90
20803;DHT22;10562;-33.856;151.182;2024-03-08T09:07:14;24.50;99.90
20803;DHT22;10562;-33.856;151.182;2024-03-08T09:09:46;24.50;99.90
20803;DHT22;10562;-33.856;151.182;2024-03-08T09:12:19;24.50;99.90
20803;DHT22;10562;-33.856;151.182;2024-03-08T09:14:49;24.50;99.90
20803;DHT22;10562;-33.856;151.182;2024-03-08T09:17:20;24.50;99.90
20803;DHT22;10562;-33.856;151.182;2024-03-08T09:19:51;24.50;99.90
20803;DHT22;10562;-33.856;151.182;2024-03-08T09:22:22;24.40;99.90
20803;DHT22;10562;-33.856;151.182;2024-03-08T09:24:52;24.40;99.90
20803;DHT22;10562;-33.856;151.182;2024-03-08T09:27:26;24.40;99.90
20803;DHT22;10562;-33.856;151.182;2024-03-08T09:29:57;24.40;99.90
20803;DHT22;10562;-33.856;151.182;2024-03-08T09:32:29;24.40;99.90
20803;DHT22;10562;-33.856;151.182;2024-03-08T09:34:59;24.40;99.90
20803;DHT22;10562;-33.856;151.182;2024-03-08T09:37:31;24.40;99.90
20803;DHT22;10562;-33.856;151.182;2024-03-08T09:40:01;24.30;99.90
20803;DHT22;10562;-33.856;151.182;2024-03-08T09:42:39;24.30;99.90
20803;DHT22;10562;-33.856;151.182;2024-03-08T09:45:11;24.30;99.90
20803;DHT22;10562;-33.856;151.182;2024-03-08T09:47:43;24.30;99.90
20803;DHT22;10562;-33.856;151.182;2024-03-08T09:50:16;24.30;99.90
20803;DHT22;10562;-33.856;151.182;2024-03-08T09:52:50;24.30;99.90
20803;DHT22;10562;-33.856;151.182;2024-03-08T09:55:22;24.30;99.90
20803;DHT22;10562;-33.856;151.182;2024-03-08T09:57:56;24.30;99.90
20803;DHT22;10562;-33.856;151.182;2024-03-08T10:01:04;24.30;99.90
20803;DHT22;10562;-33.856;151.182;2024-03-08T10:03:35;24.30;99.90
20803;DHT22;10562;-33.856;151.182;2024-03-08T10:06:06;24.30;99.90
20803;DHT22;10562;-33.856;151.182;2024-03-08T10:08:38;24.30;99.90
20803;DHT22;10562;-33.856;151.182;2024-03-08T10:11:09;24.30;99.90
20803;DHT22;10562;-33.856;151.182;2024-03-08T10:13:43;24.30;99.90
20803;DHT22;10562;-33.856;151.182;2024-03-08T10:16:14;24.30;99.90
20803;DHT22;10562;-33.856;151.182;2024-03-08T10:18:47;24.20;99.90
20803;DHT22;10562;-33.856;151.182;2024-03-08T10:21:17;24.10;99.90
20803;DHT22;10562;-33.856;151.182;2024-03-08T10:23:49;24.10;99.90
20803;DHT22;10562;-33.856;151.182;2024-03-08T10:26:21;24.10;99.90
20803;DHT22;10562;-33.856;151.182;2024-03-08T10:28:53;24.10;99.90
20803;DHT22;10562;-33.856;151.182;2024-03-08T10:31:26;24.00;99.90
20803;DHT22;10562;-33.856;151.182;2024-03-08T10:33:57;24.00;99.90
20803;DHT22;10562;-33.856;151.182;2024-03-08T10:36:29;24.00;99.90
20803;DHT22;10562;-33.856;151.182;2024-03-08T10:39:02;24.00;99.90
20803;DHT22;10562;-33.856;151.182;2024-03-08T10:41:34;24.00;99.90
20803;DHT22;10562;-33.856;151.182;2024-03-08T10:44:21;24.00;99.90
20803;DHT22;10562;-33.856;151.182;2024-03-08T10:47:02;23.90;99.90
20803;DHT22;10562;-33.856;151.182;2024-03-08T10:49:37;23.80;99.90
20803;DHT22;10562;-33.856;151.182;2024-03-08T10:52:10;23.80;99.90
20803;DHT22;10562;-33.856;151.182;2024-03-08T10:54:43;23.80;99.90
20803;DHT22;10562;-33.856;151.182;2024-03-08T10:57:14;23.90;99.90
20803;DHT22;10562;-33.856;151.182;2024-03-08T10:59:51;23.90;99.90
20803;DHT22;10562;-33.856;151.182;2024-03-08T11:02:23;23.80;99.90
20803;DHT22;10562;-33.856;151.182;2024-03-08T11:04:56;23.80;99.90
20803;DHT22;10562;-33.856;151.182;2024-03-08T11:07:27;23.80;99.90
20803;DHT22;10562;-33.856;151.182;2024-03-08T11:10:02;23.80;99.90
20803;DHT22;10562;-33.856;151.182;2024-03-08T11:12:38;23.80;99.90
20803;DHT22;10562;-33.856;151.182;2024-03-08T11:15:13;23.80;99.90
20803;DHT22;10562;-33.856;151.182;2024-03-08T11:17:49;23.90;99.90
20803;DHT22;10562;-33.856;151.182;2024-03-08T11:20:25;23.80;99.90
20803;DHT22;10562;-33.856;151.182;2024-03-08T11:23:01;23.80;99.90
20803;DHT22;10562;-33.856;151.182;2024-03-08T11:25:35;23.70;99.90
20803;DHT22;10562;-33.856;151.182;2024-03-08T11:28:18;23.60;99.90
20803;DHT22;10562;-33.856;151.182;2024-03-08T11:33:53;23.70;99.90
20803;DHT22;10562;-33.856;151.182;2024-03-08T11:36:25;23.70;99.90
20803;DHT22;10562;-33.856;151.182;2024-03-08T11:38:59;23.60;99.90
20803;DHT22;10562;-33.856;151.182;2024-03-08T11:41:37;23.60;99.90
20803;DHT22;10562;-33.856;151.182;2024-03-08T11:44:09;23.60;99.90
20803;DHT22;10562;-33.856;151.182;2024-03-08T11:46:43;23.60;99.90
20803;DHT22;10562;-33.856;151.182;2024-03-08T11:49:17;23.60;99.90
20803;DHT22;10562;-33.856;151.182;2024-03-08T11:51:50;23.60;99.90
20803;DHT22;10562;-33.856;151.182;2024-03-08T11:54:22;23.50;99.90
20803;DHT22;10562;-33.856;151.182;2024-03-08T11:56:54;23.50;99.90
20803;DHT22;10562;-33.856;151.182;2024-03-08T11:59:28;23.50;99.90
20803;DHT22;10562;-33.856;151.182;2024-03-08T12:02:01;23.50;99.90
20803;DHT22;10562;-33.856;151.182;2024-03-08T12:04:34;23.50;99.90
20803;DHT22;10562;-33.856;151.182;2024-03-08T12:07:06;23.50;99.90
20803;DHT22;10562;-33.856;151.182;2024-03-08T12:09:42;23.50;99.90
20803;DHT22;10562;-33.856;151.182;2024-03-08T12:12:14;23.40;99.90
20803;DHT22;10562;-33.856;151.182;2024-03-08T12:14:46;23.40;99.90
20803;DHT22;10562;-33.856;151.182;2024-03-08T12:17:17;23.40;99.90
20803;DHT22;10562;-33.856;151.182;2024-03-08T12:19:50;23.40;99.90
20803;DHT22;10562;-33.856;151.182;2024-03-08T12:22:26;23.30;99.90
20803;DHT22;10562;-33.856;151.182;2024-03-08T12:25:05;23.30;99.90
20803;DHT22;10562;-33.856;151.182;2024-03-08T12:27:38;23.30;99.90
20803;DHT22;10562;-33.856;151.182;2024-03-08T12:30:22;23.30;99.90
20803;DHT22;10562;-33.856;151.182;2024-03-08T12:32:55;23.30;99.90
20803;DHT22;10562;-33.856;151.182;2024-03-08T12:35:29;23.30;99.90
20803;DHT22;10562;-33.856;151.182;2024-03-08T12:38:01;23.30;99.90
20803;DHT22;10562;-33.856;151.182;2024-03-08T12:40:32;23.20;99.90
20803;DHT22;10562;-33.856;151.182;2024-03-08T12:43:08;23.20;99.90
20803;DHT22;10562;-33.856;151.182;2024-03-08T12:45:39;23.20;99.90
20803;DHT22;10562;-33.856;151.182;2024-03-08T12:48:14;23.10;99.90
20803;DHT22;10562;-33.856;151.182;2024-03-08T12:50:47;23.00;99.90
20803;DHT22;10562;-33.856;151.182;2024-03-08T12:53:19;23.10;99.90
20803;DHT22;10562;-33.856;151.182;2024-03-08T12:55:50;23.00;99.90
20803;DHT22;10562;-33.856;151.182;2024-03-08T12:58:24;23.10;99.90
20803;DHT22;10562;-33.856;151.182;2024-03-08T13:00:55;23.10;99.90
20803;DHT22;10562;-33.856;151.182;2024-03-08T13:03:26;23.00;99.90
20803;DHT22;10562;-33.856;151.182;2024-03-08T13:05:59;22.90;99.90
20803;DHT22;10562;-33.856;151.182;2024-03-08T13:08:30;22.90;99.90
20803;DHT22;10562;-33.856;151.182;2024-03-08T13:11:03;22.80;99.90
20803;DHT22;10562;-33.856;151.182;2024-03-08T13:13:34;22.80;99.90
20803;DHT22;10562;-33.856;151.182;2024-03-08T13:16:08;22.80;99.90
20803;DHT22;10562;-33.856;151.182;2024-03-08T13:18:40;22.70;99.90
20803;DHT22;10562;-33.856;151.182;2024-03-08T13:21:13;22.70;99.90
20803;DHT22;10562;-33.856;151.182;2024-03-08T13:23:47;22.70;99.90
20803;DHT22;10562;-33.856;151.182;2024-03-08T13:26:19;22.60;99.90
20803;DHT22;10562;-33.856;151.182;2024-03-08T13:28:53;22.60;99.90
20803;DHT22;10562;-33.856;151.182;2024-03-08T13:31:24;22.60;99.90
20803;DHT22;10562;-33.856;151.182;2024-03-08T13:33:55;22.50;99.90
20803;DHT22;10562;-33.856;151.182;2024-03-08T13:36:29;22.50;99.90
20803;DHT22;10562;-33.856;151.182;2024-03-08T13:39:07;22.50;99.90
20803;DHT22;10562;-33.856;151.182;2024-03-08T13:41:43;22.50;99.90
20803;DHT22;10562;-33.856;151.182;2024-03-08T13:44:14;22.40;99.90
20803;DHT22;10562;-33.856;151.182;2024-03-08T13:46:46;22.50;99.90
20803;DHT22;10562;-33.856;151.182;2024-03-08T13:49:19;22.40;99.90
20803;DHT22;10562;-33.856;151.182;2024-03-08T13:51:51;22.40;99.90
20803;DHT22;10562;-33.856;151.182;2024-03-08T13:54:23;22.30;99.90
20803;DHT22;10562;-33.856;151.182;2024-03-08T13:56:55;22.30;99.90
20803;DHT22;10562;-33.856;151.182;2024-03-08T13:59:25;22.20;99.90
20803;DHT22;10562;-33.856;151.182;2024-03-08T14:01:57;22.20;99.90
20803;DHT22;10562;-33.856;151.182;2024-03-08T14:04:29;22.20;99.90
20803;DHT22;10562;-33.856;151.182;2024-03-08T14:07:02;22.10;99.90
20803;DHT22;10562;-33.856;151.182;2024-03-08T14:09:36;22.00;99.90
20803;DHT22;10562;-33.856;151.182;2024-03-08T14:12:10;22.00;99.90
20803;DHT22;10562;-33.856;151.182;2024-03-08T14:14:42;22.00;99.90
20803;DHT22;10562;-33.856;151.182;2024-03-08T14:17:13;21.90;99.90
20803;DHT22;10562;-33.856;151.182;2024-03-08T14:19:45;21.90;99.90
20803;DHT22;10562;-33.856;151.182;2024-03-08T14:22:17;21.80;99.90
20803;DHT22;10562;-33.856;151.182;2024-03-08T14:24:49;21.80;99.90
20803;DHT22;10562;-33.856;151.182;2024-03-08T14:27:20;21.80;99.90
20803;DHT22;10562;-33.856;151.182;2024-03-08T14:29:50;21.80;99.90
20803;DHT22;10562;-33.856;151.182;2024-03-08T14:32:22;21.70;99.90
20803;DHT22;10562;-33.856;151.182;2024-03-08T14:34:53;21.70;99.90
20803;DHT22;10562;-33.856;151.182;2024-03-08T14:37:26;21.60;99.90
20803;DHT22;10562;-33.856;151.182;2024-03-08T14:39:57;21.60;99.90
20803;DHT22;10562;-33.856;151.182;2024-03-08T14:42:28;21.50;99.90
20803;DHT22;10562;-33.856;151.182;2024-03-08T14:44:58;21.50;99.90
20803;DHT22;10562;-33.856;151.182;2024-03-08T14:47:30;21.50;99.90
20803;DHT22;10562;-33.856;151.182;2024-03-08T14:50:02;21.50;99.90
20803;DHT22;10562;-33.856;151.182;2024-03-08T14:52:36;21.40;99.90
20803;DHT22;10562;-33.856;151.182;2024-03-08T14:55:08;21.40;99.90
20803;DHT22;10562;-33.856;151.182;2024-03-08T14:57:41;21.40;99.90
20803;DHT22;10562;-33.856;151.182;2024-03-08T15:00:14;21.30;99.90
20803;DHT22;10562;-33.856;151.182;2024-03-08T15:02:54;21.30;99.90
20803;DHT22;10562;-33.856;151.182;2024-03-08T15:05:25;21.30;99.90
20803;DHT22;10562;-33.856;151.182;2024-03-08T15:07:58;21.30;99.90
20803;DHT22;10562;-33.856;151.182;2024-03-08T15:10:30;21.30;99.90
20803;DHT22;10562;-33.856;151.182;2024-03-08T15:13:04;21.20;99.90
20803;DHT22;10562;-33.856;151.182;2024-03-08T15:15:47;21.20;99.90
20803;DHT22;10562;-33.856;151.182;2024-03-08T15:18:23;21.20;99.90
20803;DHT22;10562;-33.856;151.182;2024-03-08T15:20:58;21.20;99.90